sensor_id;sensor_type;location;lat;lon;timestamp;P1;durP1;ratioP1;P2;durP2;ratioP2
25191;SDS011;13143;50.924;5.320;2023-12-07T00:01:29;37.97;;;20.90;;
25191;SDS011;13143;50.924;5.320;2023-12-07T00:03:54;35.83;;;21.63;;
25191;SDS011;13143;50.924;5.320;2023-12-07T00:06:20;40.10;;;21.40;;
25191;SDS011;13143;50.924;5.320;2023-12-07T00:08:45;36.47;;;21.55;;
25191;SDS011;13143;50.924;5.320;2023-12-07T00:11:11;126.22;;;22.45;;
25191;SDS011;13143;50.924;5.320;2023-12-07T00:13:37;108.53;;;21.60;;
25191;SDS011;13143;50.924;5.320;2023-12-07T00:16:03;40.50;;;21.45;;
25191;SDS011;13143;50.924;5.320;2023-12-07T00:18:29;43.45;;;21.48;;
25191;SDS011;13143;50.924;5.320;2023-12-07T00:20:54;37.53;;;21.05;;
25191;SDS011;13143;50.924;5.320;2023-12-07T00:23:20;36.45;;;21.30;;
25191;SDS011;13143;50.924;5.320;2023-12-07T00:25:46;47.00;;;22.52;;
25191;SDS011;13143;50.924;5.320;2023-12-07T00:28:11;52.95;;;21.85;;
25191;SDS011;13143;50.924;5.320;2023-12-07T00:30:37;41.70;;;21.10;;
25191;SDS011;13143;50.924;5.320;2023-12-07T00:33:03;61.28;;;22.38;;
25191;SDS011;13143;50.924;5.320;2023-12-07T00:35:28;123.35;;;21.65;;
25191;SDS011;13143;50.924;5.320;2023-12-07T00:37:55;66.70;;;23.10;;
25191;SDS011;13143;50.924;5.320;2023-12-07T00:40:21;79.45;;;21.83;;
25191;SDS011;13143;50.924;5.320;2023-12-07T00:42:47;62.50;;;22.58;;
25191;SDS011;13143;50.924;5.320;2023-12-07T00:45:13;51.20;;;21.83;;
25191;SDS011;13143;50.924;5.320;2023-12-07T00:47:39;45.03;;;22.65;;
25191;SDS011;13143;50.924;5.320;2023-12-07T00:50:05;46.33;;;24.00;;
25191;SDS011;13143;50.924;5.320;2023-12-07T00:52:31;48.20;;;22.10;;
25191;SDS011;13143;50.924;5.320;2023-12-07T00:54:57;104.88;;;24.13;;
25191;SDS011;13143;50.924;5.320;2023-12-07T00:57:23;58.22;;;25.05;;
25191;SDS011;13143;50.924;5.320;2023-12-07T00:59:48;84.60;;;24.50;;
25191;SDS011;13143;50.924;5.320;2023-12-07T01:02:14;51.38;;;23.60;;
25191;SDS011;13143;50.924;5.320;2023-12-07T01:04:40;48.08;;;25.02;;
25191;SDS011;13143;50.924;5.320;2023-12-07T01:07:05;59.67;;;25.48;;
25191;SDS011;13143;50.924;5.320;2023-12-07T01:09:31;49.90;;;24.85;;
25191;SDS011;13143;50.924;5.320;2023-12-07T01:11:58;48.70;;;24.23;;
25191;SDS011;13143;50.924;5.320;2023-12-07T01:14:23;50.22;;;25.00;;
25191;SDS011;13143;50.924;5.320;2023-12-07T01:16:50;51.20;;;23.95;;
25191;SDS011;13143;50.924;5.320;2023-12-07T01:19:15;51.25;;;24.48;;
25191;SDS011;13143;50.924;5.320;2023-12-07T01:21:41;47.60;;;25.08;;
25191;SDS011;13143;50.924;5.320;2023-12-07T01:24:07;84.68;;;25.50;;
25191;SDS011;13143;50.924;5.320;2023-12-07T01:26:33;83.03;;;22.45;;
25191;SDS011;13143;50.924;5.320;2023-12-07T01:28:59;105.05;;;23.08;;
25191;SDS011;13143;50.924;5.320;2023-12-07T01:31:25;79.10;;;23.67;;
25191;SDS011;13143;50.924;5.320;2023-12-07T01:33:51;64.10;;;23.38;;
25191;SDS011;13143;50.924;5.320;2023-12-07T01:36:16;46.72;;;21.42;;
25191;SDS011;13143;50.924;5.320;2023-12-07T01:38:42;45.72;;;21.65;;
25191;SDS011;13143;50.924;5.320;2023-12-07T01:41:08;44.13;;;21.90;;
25191;SDS011;13143;50.924;5.320;2023-12-07T01:43:35;49.75;;;23.77;;
25191;SDS011;13143;50.924;5.320;2023-12-07T01:46:01;66.30;;;23.02;;
25191;SDS011;13143;50.924;5.320;2023-12-07T01:48:28;48.67;;;23.58;;
25191;SDS011;13143;50.924;5.320;2023-12-07T01:50:55;66.13;;;20.40;;
25191;SDS011;13143;50.924;5.320;2023-12-07T01:53:23;41.92;;;20.30;;
25191;SDS011;13143;50.924;5.320;2023-12-07T01:55:51;85.70;;;19.48;;
25191;SDS011;13143;50.924;5.320;2023-12-07T01:58:18;39.10;;;20.52;;
25191;SDS011;13143;50.924;5.320;2023-12-07T02:00:45;50.83;;;20.25;;
25191;SDS011;13143;50.924;5.320;2023-12-07T02:03:11;59.97;;;20.60;;
25191;SDS011;13143;50.924;5.320;2023-12-07T02:05:37;49.17;;;20.80;;
25191;SDS011;13143;50.924;5.320;2023-12-07T02:08:08;58.30;;;19.30;;
25191;SDS011;13143;50.924;5.320;2023-12-07T02:10:34;42.80;;;20.23;;
25191;SDS011;13143;50.924;5.320;2023-12-07T02:13:00;59.50;;;20.27;;
25191;SDS011;13143;50.924;5.320;2023-12-07T02:15:26;47.63;;;18.67;;
25191;SDS011;13143;50.924;5.320;2023-12-07T02:18:10;45.38;;;20.50;;
25191;SDS011;13143;50.924;5.320;2023-12-07T02:20:44;54.38;;;17.40;;
25191;SDS011;13143;50.924;5.320;2023-12-07T02:23:20;52.42;;;17.80;;
25191;SDS011;13143;50.924;5.320;2023-12-07T02:28:19;43.22;;;18.77;;
25191;SDS011;13143;50.924;5.320;2023-12-07T02:30:45;39.13;;;17.05;;
25191;SDS011;13143;50.924;5.320;2023-12-07T02:33:11;48.70;;;17.42;;
25191;SDS011;13143;50.924;5.320;2023-12-07T02:35:37;34.65;;;16.33;;
25191;SDS011;13143;50.924;5.320;2023-12-07T02:38:05;50.00;;;17.02;;
25191;SDS011;13143;50.924;5.320;2023-12-07T02:40:32;37.30;;;16.98;;
25191;SDS011;13143;50.924;5.320;2023-12-07T02:42:58;39.08;;;17.00;;
25191;SDS011;13143;50.924;5.320;2023-12-07T02:45:25;42.40;;;16.85;;
25191;SDS011;13143;50.924;5.320;2023-12-07T02:47:52;43.83;;;17.70;;
25191;SDS011;13143;50.924;5.320;2023-12-07T02:50:18;54.05;;;19.02;;
25191;SDS011;13143;50.924;5.320;2023-12-07T02:52:43;42.35;;;17.38;;
25191;SDS011;13143;50.924;5.320;2023-12-07T02:55:09;43.83;;;18.95;;
25191;SDS011;13143;50.924;5.320;2023-12-07T02:57:35;39.67;;;17.30;;
25191;SDS011;13143;50.924;5.320;2023-12-07T03:00:01;52.25;;;20.85;;
25191;SDS011;13143;50.924;5.320;2023-12-07T03:02:32;52.90;;;21.80;;
25191;SDS011;13143;50.924;5.320;2023-12-07T03:05:02;50.42;;;20.75;;
25191;SDS011;13143;50.924;5.320;2023-12-07T03:07:28;46.50;;;20.45;;
25191;SDS011;13143;50.924;5.320;2023-12-07T03:09:54;52.22;;;21.63;;
25191;SDS011;13143;50.924;5.320;2023-12-07T03:12:19;50.20;;;21.95;;
25191;SDS011;13143;50.924;5.320;2023-12-07T03:14:45;49.70;;;22.65;;
25191;SDS011;13143;50.924;5.320;2023-12-07T03:17:11;48.67;;;21.80;;
25191;SDS011;13143;50.924;5.320;2023-12-07T03:19:40;51.70;;;22.20;;
25191;SDS011;13143;50.924;5.320;2023-12-07T03:22:06;47.33;;;22.88;;
25191;SDS011;13143;50.924;5.320;2023-12-07T03:24:37;47.85;;;20.73;;
25191;SDS011;13143;50.924;5.320;2023-12-07T03:27:03;41.83;;;20.80;;
25191;SDS011;13143;50.924;5.320;2023-12-07T03:29:30;45.00;;;20.38;;
25191;SDS011;13143;50.924;5.320;2023-12-07T03:31:56;45.63;;;20.50;;
25191;SDS011;13143;50.924;5.320;2023-12-07T03:34:22;59.95;;;22.45;;
25191;SDS011;13143;50.924;5.320;2023-12-07T03:36:48;47.03;;;21.60;;
25191;SDS011;13143;50.924;5.320;2023-12-07T03:39:15;45.88;;;20.92;;
25191;SDS011;13143;50.924;5.320;2023-12-07T03:41:43;47.50;;;20.58;;
25191;SDS011;13143;50.924;5.320;2023-12-07T03:44:09;43.75;;;20.33;;
25191;SDS011;13143;50.924;5.320;2023-12-07T03:46:35;30.67;;;15.55;;
25191;SDS011;13143;50.924;5.320;2023-12-07T03:49:01;33.85;;;17.20;;
25191;SDS011;13143;50.924;5.320;2023-12-07T03:51:27;30.85;;;15.75;;
25191;SDS011;13143;50.924;5.320;2023-12-07T03:53:53;34.22;;;17.33;;
25191;SDS011;13143;50.924;5.320;2023-12-07T03:56:26;30.25;;;16.42;;
25191;SDS011;13143;50.924;5.320;2023-12-07T03:58:53;30.73;;;15.98;;
25191;SDS011;13143;50.924;5.320;2023-12-07T04:01:26;31.48;;;16.85;;
25191;SDS011;13143;50.924;5.320;2023-12-07T04:03:54;33.80;;;17.20;;
25191;SDS011;13143;50.924;5.320;2023-12-07T04:06:21;34.72;;;17.17;;
25191;SDS011;13143;50.924;5.320;2023-12-07T04:08:47;33.08;;;16.65;;
25191;SDS011;13143;50.924;5.320;2023-12-07T04:11:13;35.58;;;15.63;;
25191;SDS011;13143;50.924;5.320;2023-12-07T04:13:39;31.42;;;16.05;;
25191;SDS011;13143;50.924;5.320;2023-12-07T04:16:06;27.63;;;14.82;;
25191;SDS011;13143;50.924;5.320;2023-12-07T04:18:33;35.63;;;16.65;;
25191;SDS011;13143;50.924;5.320;2023-12-07T04:20:58;31.33;;;16.08;;
25191;SDS011;13143;50.924;5.320;2023-12-07T04:23:24;29.02;;;15.30;;
25191;SDS011;13143;50.924;5.320;2023-12-07T04:25:50;26.02;;;14.82;;
25191;SDS011;13143;50.924;5.320;2023-12-07T04:28:16;26.83;;;14.38;;
25191;SDS011;13143;50.924;5.320;2023-12-07T04:30:42;26.42;;;13.68;;
25191;SDS011;13143;50.924;5.320;2023-12-07T04:33:07;25.38;;;13.88;;
25191;SDS011;13143;50.924;5.320;2023-12-07T04:35:33;24.92;;;14.02;;
25191;SDS011;13143;50.924;5.320;2023-12-07T04:37:59;27.92;;;15.65;;
25191;SDS011;13143;50.924;5.320;2023-12-07T04:40:25;26.38;;;13.98;;
25191;SDS011;13143;50.924;5.320;2023-12-07T04:42:51;27.95;;;14.15;;
25191;SDS011;13143;50.924;5.320;2023-12-07T04:45:17;25.02;;;13.70;;
25191;SDS011;13143;50.924;5.320;2023-12-07T04:47:42;24.83;;;14.05;;
25191;SDS011;13143;50.924;5.320;2023-12-07T04:50:08;26.05;;;13.32;;
25191;SDS011;13143;50.924;5.320;2023-12-07T04:52:37;22.58;;;14.13;;
25191;SDS011;13143;50.924;5.320;2023-12-07T04:55:03;22.70;;;12.20;;
25191;SDS011;13143;50.924;5.320;2023-12-07T04:57:31;24.70;;;13.43;;
25191;SDS011;13143;50.924;5.320;2023-12-07T05:00:00;21.25;;;12.15;;
25191;SDS011;13143;50.924;5.320;2023-12-07T05:02:31;24.48;;;11.48;;
25191;SDS011;13143;50.924;5.320;2023-12-07T05:04:57;26.52;;;13.48;;
25191;SDS011;13143;50.924;5.320;2023-12-07T05:07:22;25.88;;;12.80;;
25191;SDS011;13143;50.924;5.320;2023-12-07T05:09:49;24.00;;;12.43;;
25191;SDS011;13143;50.924;5.320;2023-12-07T05:12:16;27.15;;;12.30;;
25191;SDS011;13143;50.924;5.320;2023-12-07T05:14:42;24.42;;;12.38;;
25191;SDS011;13143;50.924;5.320;2023-12-07T05:17:07;25.10;;;12.65;;
25191;SDS011;13143;50.924;5.320;2023-12-07T05:19:33;26.45;;;13.95;;
25191;SDS011;13143;50.924;5.320;2023-12-07T05:21:59;25.20;;;12.23;;
25191;SDS011;13143;50.924;5.320;2023-12-07T05:24:24;25.85;;;12.75;;
25191;SDS011;13143;50.924;5.320;2023-12-07T05:26:50;27.60;;;13.65;;
25191;SDS011;13143;50.924;5.320;2023-12-07T05:29:16;26.13;;;13.73;;
25191;SDS011;13143;50.924;5.320;2023-12-07T05:31:42;27.15;;;12.98;;
25191;SDS011;13143;50.924;5.320;2023-12-07T05:34:08;29.98;;;14.07;;
25191;SDS011;13143;50.924;5.320;2023-12-07T05:36:34;28.88;;;14.23;;
25191;SDS011;13143;50.924;5.320;2023-12-07T05:38:59;27.90;;;14.05;;
25191;SDS011;13143;50.924;5.320;2023-12-07T05:41:25;31.67;;;14.77;;
25191;SDS011;13143;50.924;5.320;2023-12-07T05:43:51;27.52;;;13.85;;
25191;SDS011;13143;50.924;5.320;2023-12-07T05:46:18;28.88;;;15.10;;
25191;SDS011;13143;50.924;5.320;2023-12-07T05:48:46;26.25;;;13.77;;
25191;SDS011;13143;50.924;5.320;2023-12-07T05:51:12;29.75;;;14.77;;
25191;SDS011;13143;50.924;5.320;2023-12-07T05:53:39;31.13;;;14.50;;
25191;SDS011;13143;50.924;5.320;2023-12-07T05:56:05;32.47;;;14.98;;
25191;SDS011;13143;50.924;5.320;2023-12-07T05:58:31;27.73;;;13.80;;
25191;SDS011;13143;50.924;5.320;2023-12-07T06:00:57;30.05;;;14.38;;
25191;SDS011;13143;50.924;5.320;2023-12-07T06:03:24;28.63;;;15.30;;
25191;SDS011;13143;50.924;5.320;2023-12-07T06:05:50;32.53;;;15.23;;
25191;SDS011;13143;50.924;5.320;2023-12-07T06:08:16;31.50;;;16.65;;
25191;SDS011;13143;50.924;5.320;2023-12-07T06:10:44;37.72;;;17.80;;
25191;SDS011;13143;50.924;5.320;2023-12-07T06:13:09;31.45;;;16.15;;
25191;SDS011;13143;50.924;5.320;2023-12-07T06:15:35;30.38;;;16.77;;
25191;SDS011;13143;50.924;5.320;2023-12-07T06:18:01;31.48;;;16.02;;
25191;SDS011;13143;50.924;5.320;2023-12-07T06:20:28;30.40;;;16.63;;
25191;SDS011;13143;50.924;5.320;2023-12-07T06:22:54;31.17;;;16.45;;
25191;SDS011;13143;50.924;5.320;2023-12-07T06:25:19;33.03;;;16.58;;
25191;SDS011;13143;50.924;5.320;2023-12-07T06:27:45;32.22;;;16.98;;
25191;SDS011;13143;50.924;5.320;2023-12-07T06:30:11;27.83;;;14.57;;
25191;SDS011;13143;50.924;5.320;2023-12-07T06:32:37;30.13;;;15.57;;
25191;SDS011;13143;50.924;5.320;2023-12-07T06:35:03;28.08;;;16.30;;
25191;SDS011;13143;50.924;5.320;2023-12-07T06:37:32;27.70;;;15.45;;
25191;SDS011;13143;50.924;5.320;2023-12-07T06:39:58;30.23;;;15.35;;
25191;SDS011;13143;50.924;5.320;2023-12-07T06:42:25;28.65;;;15.70;;
25191;SDS011;13143;50.924;5.320;2023-12-07T06:44:51;27.55;;;15.55;;
25191;SDS011;13143;50.924;5.320;2023-12-07T06:47:17;32.72;;;16.38;;
25191;SDS011;13143;50.924;5.320;2023-12-07T06:49:43;29.17;;;16.90;;
25191;SDS011;13143;50.924;5.320;2023-12-07T06:52:09;38.60;;;18.00;;
25191;SDS011;13143;50.924;5.320;2023-12-07T06:54:36;32.78;;;16.35;;
25191;SDS011;13143;50.924;5.320;2023-12-07T06:57:02;28.70;;;15.55;;
25191;SDS011;13143;50.924;5.320;2023-12-07T06:59:27;31.40;;;15.85;;
25191;SDS011;13143;50.924;5.320;2023-12-07T07:01:53;30.45;;;16.85;;
25191;SDS011;13143;50.924;5.320;2023-12-07T07:04:19;31.00;;;15.75;;
25191;SDS011;13143;50.924;5.320;2023-12-07T07:06:45;29.73;;;16.48;;
25191;SDS011;13143;50.924;5.320;2023-12-07T07:09:10;32.63;;;16.85;;
25191;SDS011;13143;50.924;5.320;2023-12-07T07:11:37;30.48;;;16.42;;
25191;SDS011;13143;50.924;5.320;2023-12-07T07:14:03;28.15;;;15.98;;
25191;SDS011;13143;50.924;5.320;2023-12-07T07:16:29;30.77;;;17.13;;
25191;SDS011;13143;50.924;5.320;2023-12-07T07:18:55;32.45;;;17.40;;
25191;SDS011;13143;50.924;5.320;2023-12-07T07:21:21;30.17;;;16.38;;
25191;SDS011;13143;50.924;5.320;2023-12-07T07:23:47;29.98;;;16.60;;
25191;SDS011;13143;50.924;5.320;2023-12-07T07:26:13;30.02;;;16.20;;
25191;SDS011;13143;50.924;5.320;2023-12-07T07:28:42;28.98;;;16.02;;
25191;SDS011;13143;50.924;5.320;2023-12-07T07:31:08;36.97;;;17.60;;
25191;SDS011;13143;50.924;5.320;2023-12-07T07:33:34;28.90;;;15.82;;
25191;SDS011;13143;50.924;5.320;2023-12-07T07:35:59;29.08;;;16.63;;
25191;SDS011;13143;50.924;5.320;2023-12-07T07:38:25;30.23;;;17.00;;
25191;SDS011;13143;50.924;5.320;2023-12-07T07:40:51;31.80;;;16.65;;
25191;SDS011;13143;50.924;5.320;2023-12-07T07:43:17;27.45;;;15.80;;
25191;SDS011;13143;50.924;5.320;2023-12-07T07:45:43;32.95;;;16.08;;
25191;SDS011;13143;50.924;5.320;2023-12-07T07:48:09;26.08;;;15.68;;
25191;SDS011;13143;50.924;5.320;2023-12-07T07:50:34;23.60;;;14.90;;
25191;SDS011;13143;50.924;5.320;2023-12-07T07:53:01;27.67;;;15.63;;
25191;SDS011;13143;50.924;5.320;2023-12-07T07:55:28;25.70;;;14.63;;
25191;SDS011;13143;50.924;5.320;2023-12-07T07:57:54;34.80;;;17.38;;
25191;SDS011;13143;50.924;5.320;2023-12-07T08:00:20;32.70;;;16.35;;
25191;SDS011;13143;50.924;5.320;2023-12-07T08:02:46;30.38;;;16.58;;
25191;SDS011;13143;50.924;5.320;2023-12-07T08:05:12;31.13;;;15.55;;
25191;SDS011;13143;50.924;5.320;2023-12-07T08:07:39;28.05;;;16.02;;
25191;SDS011;13143;50.924;5.320;2023-12-07T08:10:05;28.45;;;15.50;;
25191;SDS011;13143;50.924;5.320;2023-12-07T08:12:32;28.23;;;15.23;;
25191;SDS011;13143;50.924;5.320;2023-12-07T08:14:58;30.45;;;16.00;;
25191;SDS011;13143;50.924;5.320;2023-12-07T08:17:24;30.23;;;15.80;;
25191;SDS011;13143;50.924;5.320;2023-12-07T08:19:51;27.13;;;15.07;;
25191;SDS011;13143;50.924;5.320;2023-12-07T08:22:17;29.52;;;15.00;;
25191;SDS011;13143;50.924;5.320;2023-12-07T08:24:43;26.25;;;14.63;;
25191;SDS011;13143;50.924;5.320;2023-12-07T08:27:09;27.88;;;14.18;;
25191;SDS011;13143;50.924;5.320;2023-12-07T08:29:34;25.98;;;14.45;;
25191;SDS011;13143;50.924;5.320;2023-12-07T08:32:01;30.90;;;15.02;;
25191;SDS011;13143;50.924;5.320;2023-12-07T08:34:27;29.17;;;14.40;;
25191;SDS011;13143;50.924;5.320;2023-12-07T08:36:54;26.38;;;14.40;;
25191;SDS011;13143;50.924;5.320;2023-12-07T08:39:20;28.90;;;15.30;;
25191;SDS011;13143;50.924;5.320;2023-12-07T08:41:46;28.65;;;14.30;;
25191;SDS011;13143;50.924;5.320;2023-12-07T08:44:12;31.40;;;15.15;;
25191;SDS011;13143;50.924;5.320;2023-12-07T08:46:37;30.25;;;15.38;;
25191;SDS011;13143;50.924;5.320;2023-12-07T08:49:03;24.25;;;14.02;;
25191;SDS011;13143;50.924;5.320;2023-12-07T08:51:29;28.52;;;14.63;;
25191;SDS011;13143;50.924;5.320;2023-12-07T08:53:54;26.30;;;14.02;;
25191;SDS011;13143;50.924;5.320;2023-12-07T08:56:20;27.73;;;13.63;;
25191;SDS011;13143;50.924;5.320;2023-12-07T08:58:46;25.25;;;13.98;;
25191;SDS011;13143;50.924;5.320;2023-12-07T09:01:12;25.15;;;13.98;;
25191;SDS011;13143;50.924;5.320;2023-12-07T09:03:38;30.13;;;15.00;;
25191;SDS011;13143;50.924;5.320;2023-12-07T09:06:03;27.60;;;14.82;;
25191;SDS011;13143;50.924;5.320;2023-12-07T09:08:30;27.95;;;13.40;;
25191;SDS011;13143;50.924;5.320;2023-12-07T09:10:56;22.75;;;13.27;;
25191;SDS011;13143;50.924;5.320;2023-12-07T09:13:22;23.92;;;13.20;;
25191;SDS011;13143;50.924;5.320;2023-12-07T09:15:48;24.67;;;12.82;;
25191;SDS011;13143;50.924;5.320;2023-12-07T09:18:14;23.13;;;12.98;;
25191;SDS011;13143;50.924;5.320;2023-12-07T09:20:39;20.20;;;12.70;;
25191;SDS011;13143;50.924;5.320;2023-12-07T09:23:11;22.70;;;12.77;;
25191;SDS011;13143;50.924;5.320;2023-12-07T09:25:40;24.63;;;13.63;;
25191;SDS011;13143;50.924;5.320;2023-12-07T09:28:07;27.15;;;13.63;;
25191;SDS011;13143;50.924;5.320;2023-12-07T09:30:33;26.25;;;13.38;;
25191;SDS011;13143;50.924;5.320;2023-12-07T09:32:59;23.25;;;12.77;;
25191;SDS011;13143;50.924;5.320;2023-12-07T09:35:27;24.77;;;12.52;;
25191;SDS011;13143;50.924;5.320;2023-12-07T09:37:53;23.60;;;13.25;;
25191;SDS011;13143;50.924;5.320;2023-12-07T09:40:22;20.42;;;12.43;;
25191;SDS011;13143;50.924;5.320;2023-12-07T09:42:49;22.52;;;12.52;;
25191;SDS011;13143;50.924;5.320;2023-12-07T09:45:18;23.58;;;11.77;;
25191;SDS011;13143;50.924;5.320;2023-12-07T09:47:48;23.85;;;12.00;;
25191;SDS011;13143;50.924;5.320;2023-12-07T09:50:16;17.67;;;11.02;;
25191;SDS011;13143;50.924;5.320;2023-12-07T09:52:49;20.35;;;11.90;;
25191;SDS011;13143;50.924;5.320;2023-12-07T09:55:16;21.20;;;11.18;;
25191;SDS011;13143;50.924;5.320;2023-12-07T09:57:43;17.85;;;11.30;;
25191;SDS011;13143;50.924;5.320;2023-12-07T10:00:10;16.77;;;10.95;;
25191;SDS011;13143;50.924;5.320;2023-12-07T10:02:39;19.60;;;10.85;;
25191;SDS011;13143;50.924;5.320;2023-12-07T10:05:06;21.65;;;11.20;;
25191;SDS011;13143;50.924;5.320;2023-12-07T10:07:35;21.23;;;11.40;;
25191;SDS011;13143;50.924;5.320;2023-12-07T10:10:04;20.45;;;10.55;;
25191;SDS011;13143;50.924;5.320;2023-12-07T10:12:31;21.13;;;10.88;;
25191;SDS011;13143;50.924;5.320;2023-12-07T10:15:16;20.33;;;11.98;;
25191;SDS011;13143;50.924;5.320;2023-12-07T10:17:53;17.30;;;11.20;;
25191;SDS011;13143;50.924;5.320;2023-12-07T10:20:22;18.45;;;10.73;;
25191;SDS011;13143;50.924;5.320;2023-12-07T10:23:10;18.75;;;10.70;;
25191;SDS011;13143;50.924;5.320;2023-12-07T10:25:37;17.88;;;11.20;;
25191;SDS011;13143;50.924;5.320;2023-12-07T10:28:04;18.10;;;11.02;;
25191;SDS011;13143;50.924;5.320;2023-12-07T10:30:32;20.95;;;11.57;;
25191;SDS011;13143;50.924;5.320;2023-12-07T10:33:04;25.08;;;11.15;;
25191;SDS011;13143;50.924;5.320;2023-12-07T10:35:33;18.08;;;11.20;;
25191;SDS011;13143;50.924;5.320;2023-12-07T10:38:06;19.30;;;10.45;;
25191;SDS011;13143;50.924;5.320;2023-12-07T10:40:32;21.25;;;11.50;;
25191;SDS011;13143;50.924;5.320;2023-12-07T10:42:59;20.25;;;11.48;;
25191;SDS011;13143;50.924;5.320;2023-12-07T10:45:30;19.40;;;10.95;;
25191;SDS011;13143;50.924;5.320;2023-12-07T10:48:06;19.92;;;11.50;;
25191;SDS011;13143;50.924;5.320;2023-12-07T10:50:37;19.58;;;11.52;;
25191;SDS011;13143;50.924;5.320;2023-12-07T10:53:09;19.55;;;10.75;;
25191;SDS011;13143;50.924;5.320;2023-12-07T10:55:38;20.40;;;10.93;;
25191;SDS011;13143;50.924;5.320;2023-12-07T10:58:11;21.88;;;11.02;;
25191;SDS011;13143;50.924;5.320;2023-12-07T11:00:38;25.00;;;10.30;;
25191;SDS011;13143;50.924;5.320;2023-12-07T11:03:09;22.13;;;10.63;;
25191;SDS011;13143;50.924;5.320;2023-12-07T11:05:35;21.95;;;10.57;;
25191;SDS011;13143;50.924;5.320;2023-12-07T11:08:04;25.10;;;10.50;;
25191;SDS011;13143;50.924;5.320;2023-12-07T11:13:32;21.88;;;12.00;;
25191;SDS011;13143;50.924;5.320;2023-12-07T11:16:00;23.40;;;10.65;;
25191;SDS011;13143;50.924;5.320;2023-12-07T11:18:26;18.85;;;10.90;;
25191;SDS011;13143;50.924;5.320;2023-12-07T11:20:53;19.70;;;11.50;;
25191;SDS011;13143;50.924;5.320;2023-12-07T11:23:20;19.90;;;10.82;;
25191;SDS011;13143;50.924;5.320;2023-12-07T11:25:47;19.73;;;10.57;;
25191;SDS011;13143;50.924;5.320;2023-12-07T11:28:14;19.77;;;9.80;;
25191;SDS011;13143;50.924;5.320;2023-12-07T11:30:46;21.95;;;10.90;;
25191;SDS011;13143;50.924;5.320;2023-12-07T11:33:12;22.77;;;10.98;;
25191;SDS011;13143;50.924;5.320;2023-12-07T11:38:28;22.90;;;10.57;;
25191;SDS011;13143;50.924;5.320;2023-12-07T11:40:54;19.15;;;10.52;;
25191;SDS011;13143;50.924;5.320;2023-12-07T11:43:36;23.77;;;11.57;;
25191;SDS011;13143;50.924;5.320;2023-12-07T11:46:08;20.00;;;10.07;;
25191;SDS011;13143;50.924;5.320;2023-12-07T11:48:34;20.13;;;11.68;;
25191;SDS011;13143;50.924;5.320;2023-12-07T11:51:01;22.23;;;11.43;;
25191;SDS011;13143;50.924;5.320;2023-12-07T11:53:29;19.00;;;10.63;;
25191;SDS011;13143;50.924;5.320;2023-12-07T11:56:00;18.40;;;10.20;;
25191;SDS011;13143;50.924;5.320;2023-12-07T11:58:31;19.65;;;10.80;;
25191;SDS011;13143;50.924;5.320;2023-12-07T12:00:58;19.60;;;10.68;;
25191;SDS011;13143;50.924;5.320;2023-12-07T12:03:24;17.15;;;9.30;;
25191;SDS011;13143;50.924;5.320;2023-12-07T12:05:51;15.95;;;9.82;;
25191;SDS011;13143;50.924;5.320;2023-12-07T12:08:18;18.60;;;9.60;;
25191;SDS011;13143;50.924;5.320;2023-12-07T12:10:44;23.77;;;10.18;;
25191;SDS011;13143;50.924;5.320;2023-12-07T12:13:11;24.75;;;9.15;;
25191;SDS011;13143;50.924;5.320;2023-12-07T12:15:38;16.75;;;9.45;;
25191;SDS011;13143;50.924;5.320;2023-12-07T12:18:04;20.40;;;10.68;;
25191;SDS011;13143;50.924;5.320;2023-12-07T12:20:31;20.90;;;10.63;;
25191;SDS011;13143;50.924;5.320;2023-12-07T12:22:57;19.60;;;9.50;;
25191;SDS011;13143;50.924;5.320;2023-12-07T12:25:25;16.42;;;10.43;;
25191;SDS011;13143;50.924;5.320;2023-12-07T12:27:53;18.80;;;10.40;;
25191;SDS011;13143;50.924;5.320;2023-12-07T12:30:21;18.73;;;10.10;;
25191;SDS011;13143;50.924;5.320;2023-12-07T12:32:50;15.73;;;10.00;;
25191;SDS011;13143;50.924;5.320;2023-12-07T12:35:16;16.10;;;9.02;;
25191;SDS011;13143;50.924;5.320;2023-12-07T12:37:43;19.20;;;10.13;;
25191;SDS011;13143;50.924;5.320;2023-12-07T12:40:13;18.02;;;9.52;;
25191;SDS011;13143;50.924;5.320;2023-12-07T12:42:44;17.65;;;9.30;;
25191;SDS011;13143;50.924;5.320;2023-12-07T12:45:12;16.58;;;9.85;;
25191;SDS011;13143;50.924;5.320;2023-12-07T12:47:38;18.52;;;9.40;;
25191;SDS011;13143;50.924;5.320;2023-12-07T12:50:06;14.35;;;8.88;;
25191;SDS011;13143;50.924;5.320;2023-12-07T12:52:35;19.10;;;10.05;;
25191;SDS011;13143;50.924;5.320;2023-12-07T12:55:02;16.45;;;8.85;;
25191;SDS011;13143;50.924;5.320;2023-12-07T12:57:31;13.18;;;8.93;;
25191;SDS011;13143;50.924;5.320;2023-12-07T12:59:57;18.10;;;9.30;;
25191;SDS011;13143;50.924;5.320;2023-12-07T13:02:26;15.38;;;9.10;;
25191;SDS011;13143;50.924;5.320;2023-12-07T13:04:52;19.88;;;9.63;;
25191;SDS011;13143;50.924;5.320;2023-12-07T13:07:19;15.60;;;8.77;;
25191;SDS011;13143;50.924;5.320;2023-12-07T13:09:44;17.88;;;8.55;;
25191;SDS011;13143;50.924;5.320;2023-12-07T13:12:10;16.65;;;9.23;;
25191;SDS011;13143;50.924;5.320;2023-12-07T13:14:36;15.35;;;8.85;;
25191;SDS011;13143;50.924;5.320;2023-12-07T13:17:04;23.48;;;9.00;;
25191;SDS011;13143;50.924;5.320;2023-12-07T13:19:32;15.32;;;7.90;;
25191;SDS011;13143;50.924;5.320;2023-12-07T13:21:58;14.40;;;8.35;;
25191;SDS011;13143;50.924;5.320;2023-12-07T13:24:24;12.90;;;7.75;;
25191;SDS011;13143;50.924;5.320;2023-12-07T13:26:50;14.43;;;8.32;;
25191;SDS011;13143;50.924;5.320;2023-12-07T13:29:16;12.93;;;8.07;;
25191;SDS011;13143;50.924;5.320;2023-12-07T13:31:41;13.80;;;8.55;;
25191;SDS011;13143;50.924;5.320;2023-12-07T13:34:07;16.58;;;8.02;;
25191;SDS011;13143;50.924;5.320;2023-12-07T13:36:33;19.05;;;8.07;;
25191;SDS011;13143;50.924;5.320;2023-12-07T13:39:00;16.27;;;8.00;;
25191;SDS011;13143;50.924;5.320;2023-12-07T13:41:27;12.80;;;7.65;;
25191;SDS011;13143;50.924;5.320;2023-12-07T13:43:53;14.63;;;7.82;;
25191;SDS011;13143;50.924;5.320;2023-12-07T13:46:19;13.63;;;6.97;;
25191;SDS011;13143;50.924;5.320;2023-12-07T13:48:45;16.27;;;7.28;;
25191;SDS011;13143;50.924;5.320;2023-12-07T13:51:11;13.82;;;7.03;;
25191;SDS011;13143;50.924;5.320;2023-12-07T13:53:38;15.45;;;7.70;;
25191;SDS011;13143;50.924;5.320;2023-12-07T13:56:03;12.80;;;6.72;;
25191;SDS011;13143;50.924;5.320;2023-12-07T13:58:30;16.02;;;7.15;;
25191;SDS011;13143;50.924;5.320;2023-12-07T14:00:56;14.30;;;7.00;;
25191;SDS011;13143;50.924;5.320;2023-12-07T14:03:22;11.20;;;6.50;;
25191;SDS011;13143;50.924;5.320;2023-12-07T14:05:48;18.45;;;7.03;;
25191;SDS011;13143;50.924;5.320;2023-12-07T14:08:14;12.40;;;6.18;;
25191;SDS011;13143;50.924;5.320;2023-12-07T14:10:40;14.07;;;7.30;;
25191;SDS011;13143;50.924;5.320;2023-12-07T14:13:06;11.20;;;6.32;;
25191;SDS011;13143;50.924;5.320;2023-12-07T14:15:33;10.95;;;7.38;;
25191;SDS011;13143;50.924;5.320;2023-12-07T14:18:00;13.40;;;7.00;;
25191;SDS011;13143;50.924;5.320;2023-12-07T14:20:27;10.98;;;6.32;;
25191;SDS011;13143;50.924;5.320;2023-12-07T14:22:53;16.02;;;7.55;;
25191;SDS011;13143;50.924;5.320;2023-12-07T14:25:23;14.45;;;7.18;;
25191;SDS011;13143;50.924;5.320;2023-12-07T14:27:49;16.17;;;9.30;;
25191;SDS011;13143;50.924;5.320;2023-12-07T14:30:14;13.52;;;8.02;;